createdAt,value
2016-07-06T00:00:12.571Z,99.99
2016-07-06T00:01:12.519Z,99.99
2016-07-06T00:02:12.604Z,99.99
2016-07-06T00:03:12.592Z,99.99
2016-07-06T00:04:12.556Z,99.99
2016-07-06T00:05:12.615Z,99.99
2016-07-06T00:06:12.616Z,99.99
2016-07-06T00:07:12.620Z,99.99
2016-07-06T00:08:12.550Z,99.99
2016-07-06T00:09:12.613Z,99.99
2016-07-06T00:10:12.634Z,99.99
2016-07-06T00:11:12.554Z,99.99
2016-07-06T00:12:12.581Z,99.99
2016-07-06T00:13:12.619Z,99.99
2016-07-06T00:14:12.596Z,99.99
2016-07-06T00:15:12.592Z,99.99
2016-07-06T00:16:12.627Z,99.99
2016-07-06T00:17:12.566Z,99.99
2016-07-06T00:18:12.641Z,99.99
2016-07-06T00:19:12.563Z,99.99
2016-07-06T00:20:12.643Z,99.99
2016-07-06T00:21:12.653Z,99.99
2016-07-06T00:22:12.610Z,99.99
2016-07-06T00:23:12.651Z,99.99
2016-07-06T00:24:12.630Z,99.99
2016-07-06T00:25:12.610Z,99.99
2016-07-06T00:26:12.616Z,99.99
2016-07-06T00:27:12.668Z,99.99
2016-07-06T00:28:12.632Z,99.99
2016-07-06T00:29:12.638Z,99.99
2016-07-06T00:30:12.671Z,99.99
2016-07-06T00:31:12.605Z,99.99
2016-07-06T00:32:12.677Z,99.99
2016-07-06T00:33:12.691Z,99.99
2016-07-06T00:34:12.680Z,99.99
2016-07-06T00:35:13.238Z,99.99
2016-07-06T00:36:12.688Z,99.99
2016-07-06T00:37:12.623Z,99.99
2016-07-06T00:38:12.616Z,99.99
2016-07-06T00:39:12.697Z,99.99
2016-07-06T00:40:12.719Z,99.99
2016-07-06T00:41:12.658Z,99.99
2016-07-06T00:42:12.706Z,99.99
2016-07-06T00:43:12.677Z,99.99
2016-07-06T00:44:12.720Z,99.99
2016-07-06T00:45:12.637Z,99.99
2016-07-06T00:46:12.718Z,99.99
2016-07-06T00:47:12.732Z,99.99
2016-07-06T00:48:12.702Z,99.99
2016-07-06T00:49:12.740Z,99.99
2016-07-06T00:50:12.690Z,99.99
2016-07-06T00:51:12.748Z,99.99
2016-07-06T00:52:12.752Z,99.99
2016-07-06T00:53:12.742Z,99.99
2016-07-06T00:54:12.749Z,99.99
2016-07-06T00:55:12.755Z,99.99
2016-07-06T00:56:12.760Z,99.99
2016-07-06T00:57:12.760Z,99.99
2016-07-06T00:58:12.715Z,99.99
2016-07-06T00:59:12.772Z,99.99
2016-07-06T01:00:12.723Z,99.99
2016-07-06T01:01:12.766Z,99.99
2016-07-06T01:02:12.686Z,99.99
2016-07-06T01:03:12.743Z,99.99
2016-07-06T01:04:12.793Z,99.99
2016-07-06T01:05:12.777Z,99.99
2016-07-06T01:06:12.779Z,99.99
2016-07-06T01:07:12.703Z,99.99
2016-07-06T01:08:12.787Z,99.99
2016-07-06T01:09:12.748Z,99.99
2016-07-06T01:10:12.844Z,99.99
2016-07-06T01:11:12.804Z,99.99
2016-07-06T01:12:12.828Z,99.99
2016-07-06T01:13:12.797Z,99.99
2016-07-06T01:14:12.801Z,99.99
2016-07-06T01:15:12.761Z,99.99
2016-07-06T01:16:12.807Z,99.99
2016-07-06T01:17:12.730Z,99.99
2016-07-06T01:18:12.816Z,99.99
2016-07-06T01:19:12.825Z,99.99
2016-07-06T01:20:12.838Z,99.99
2016-07-06T01:21:12.779Z,99.99
2016-07-06T01:22:12.752Z,99.99
2016-07-06T01:23:12.830Z,99.99
2016-07-06T01:24:12.790Z,99.99
2016-07-06T01:25:12.850Z,99.99
2016-07-06T01:26:12.829Z,99.99
2016-07-06T01:27:12.801Z,99.99
2016-07-06T01:28:12.851Z,99.99
2016-07-06T01:29:12.901Z,99.99
2016-07-06T01:30:12.767Z,99.99
2016-07-06T01:31:12.847Z,99.99
2016-07-06T01:32:12.865Z,99.99
2016-07-06T01:33:12.857Z,99.99
2016-07-06T01:34:12.857Z,99.99
2016-07-06T01:35:12.865Z,99.99
2016-07-06T01:36:12.820Z,99.99
2016-07-06T01:37:12.882Z,99.99
2016-07-06T01:38:12.881Z,99.99
2016-07-06T01:39:12.871Z,99.99
2016-07-06T01:40:12.880Z,99.99
2016-07-06T01:41:12.896Z,99.99
2016-07-06T01:42:12.796Z,99.99
2016-07-06T01:43:12.836Z,99.99
2016-07-06T01:44:12.845Z,99.99
2016-07-06T01:45:12.893Z,99.99
2016-07-06T01:46:12.808Z,99.99
2016-07-06T01:47:12.808Z,99.99
2016-07-06T01:48:12.898Z,99.99
2016-07-06T01:49:12.906Z,99.99
2016-07-06T01:50:12.933Z,99.99
2016-07-06T01:51:12.850Z,99.99
2016-07-06T01:52:12.820Z,99.99
2016-07-06T01:53:12.880Z,99.99
2016-07-06T01:54:12.921Z,99.99
2016-07-06T01:55:12.882Z,99.99
2016-07-06T01:56:12.932Z,99.99
2016-07-06T01:57:12.914Z,99.99
2016-07-06T01:58:12.918Z,99.99
2016-07-06T01:59:12.928Z,99.99
2016-07-06T02:00:12.845Z,99.99
2016-07-06T02:01:12.935Z,99.99
2016-07-06T02:02:12.901Z,99.99
2016-07-06T02:03:12.898Z,99.99
2016-07-06T02:04:12.865Z,99.99
2016-07-06T02:05:12.950Z,99.99
2016-07-06T02:06:12.863Z,99.99
2016-07-06T02:07:12.870Z,99.99
2016-07-06T02:08:12.876Z,99.99
2016-07-06T02:09:12.912Z,99.99
2016-07-06T02:10:12.891Z,99.99
2016-07-06T02:11:12.918Z,99.99
2016-07-06T02:12:12.974Z,99.99
2016-07-06T02:13:12.959Z,99.99
2016-07-06T02:14:12.973Z,99.99
2016-07-06T02:15:12.895Z,99.99
2016-07-06T02:16:12.986Z,99.99
2016-07-06T02:17:12.984Z,99.99
2016-07-06T02:18:12.940Z,99.99
2016-07-06T02:19:12.901Z,99.99
2016-07-06T02:20:12.979Z,99.99
2016-07-06T02:21:12.994Z,99.99
2016-07-06T02:22:12.993Z,99.99
2016-07-06T02:23:12.999Z,99.99
2016-07-06T02:24:13.003Z,99.99
2016-07-06T02:25:12.998Z,99.99
2016-07-06T02:26:12.967Z,99.99
2016-07-06T02:27:12.960Z,99.99
2016-07-06T02:28:12.924Z,99.99
2016-07-06T02:29:13.004Z,99.99
2016-07-06T02:30:13.027Z,99.99
2016-07-06T02:31:13.021Z,99.99
2016-07-06T02:32:12.990Z,99.99
2016-07-06T02:33:13.018Z,99.99
2016-07-06T02:34:13.029Z,99.99
2016-07-06T02:35:12.987Z,99.99
2016-07-06T02:36:12.953Z,99.99
2016-07-06T02:37:13.028Z,99.99
2016-07-06T02:38:13.033Z,99.99
2016-07-06T02:39:13.052Z,99.99
2016-07-06T02:40:13.054Z,99.99
2016-07-06T02:41:13.040Z,99.99
2016-07-06T02:42:12.963Z,99.99
2016-07-06T02:43:13.001Z,99.99
2016-07-06T02:44:13.037Z,99.99
2016-07-06T02:45:13.009Z,99.99
2016-07-06T02:46:13.003Z,99.99
2016-07-06T02:47:13.044Z,99.99
2016-07-06T02:48:13.046Z,99.99
2016-07-06T02:49:12.985Z,99.99
2016-07-06T02:50:13.016Z,99.99
2016-07-06T02:51:13.009Z,99.99
2016-07-06T02:52:12.990Z,99.99
2016-07-06T02:53:13.029Z,99.99
2016-07-06T02:54:12.993Z,99.99
2016-07-06T02:55:13.002Z,99.99
2016-07-06T02:56:13.075Z,99.99
2016-07-06T02:57:13.074Z,99.99
2016-07-06T02:58:13.073Z,99.99
2016-07-06T02:59:13.079Z,99.99
2016-07-06T03:00:13.087Z,99.99
2016-07-06T03:01:13.051Z,99.99
2016-07-06T03:02:13.047Z,99.99
2016-07-06T03:03:13.098Z,99.99
2016-07-06T03:04:13.016Z,99.99
2016-07-06T03:05:13.039Z,99.99
2016-07-06T03:06:13.102Z,99.99
2016-07-06T03:07:13.109Z,99.99
2016-07-06T03:08:13.063Z,99.99
2016-07-06T03:09:13.067Z,99.99
2016-07-06T03:10:13.117Z,99.99
2016-07-06T03:11:13.050Z,99.99
2016-07-06T03:12:13.040Z,99.99
2016-07-06T03:13:13.049Z,99.99
2016-07-06T03:14:13.046Z,99.99
2016-07-06T03:15:13.126Z,99.99
2016-07-06T03:16:13.121Z,99.99
2016-07-06T03:17:13.050Z,99.99
2016-07-06T03:18:13.147Z,99.99
2016-07-06T03:19:13.094Z,99.99
2016-07-06T03:20:13.057Z,99.99
2016-07-06T03:21:13.140Z,99.99
2016-07-06T03:22:13.071Z,99.99
2016-07-06T03:23:13.145Z,99.99
2016-07-06T03:24:13.151Z,99.99
2016-07-06T03:25:13.079Z,99.99
2016-07-06T03:26:13.160Z,99.99
2016-07-06T03:27:13.176Z,99.99
2016-07-06T03:28:13.085Z,99.99
2016-07-06T03:29:13.133Z,99.99
2016-07-06T03:30:13.168Z,99.99
2016-07-06T03:31:13.170Z,99.99
2016-07-06T03:32:13.128Z,99.99
2016-07-06T03:33:13.181Z,99.99
2016-07-06T03:34:13.149Z,99.99
2016-07-06T03:35:13.189Z,99.99
2016-07-06T03:36:13.101Z,99.99
2016-07-06T03:37:13.139Z,99.99
2016-07-06T03:38:13.189Z,99.99
2016-07-06T03:39:13.195Z,99.99
2016-07-06T03:40:13.194Z,99.99
2016-07-06T03:41:13.202Z,99.99
2016-07-06T03:42:13.215Z,99.99
2016-07-06T03:43:13.159Z,99.99
2016-07-06T03:44:13.218Z,99.99
2016-07-06T03:45:13.169Z,99.99
2016-07-06T03:46:13.217Z,99.99
2016-07-06T03:47:13.180Z,99.99
2016-07-06T03:48:13.216Z,99.99
2016-07-06T03:49:13.221Z,99.99
2016-07-06T03:50:13.227Z,99.99
2016-07-06T03:51:13.145Z,99.99
2016-07-06T03:52:13.194Z,99.99
2016-07-06T03:53:13.186Z,99.99
2016-07-06T03:54:13.228Z,99.99
2016-07-06T03:55:13.201Z,99.99
2016-07-06T03:56:13.235Z,99.99
2016-07-06T03:57:13.201Z,99.99
2016-07-06T03:58:13.243Z,99.99
2016-07-06T03:59:13.261Z,99.99
2016-07-06T04:00:13.185Z,99.99
2016-07-06T04:01:13.266Z,99.99
2016-07-06T04:02:13.211Z,99.99
2016-07-06T04:03:13.262Z,99.99
2016-07-06T04:04:13.263Z,99.99
2016-07-06T04:05:13.270Z,99.99
2016-07-06T04:06:13.279Z,99.99
2016-07-06T04:07:13.230Z,99.99
2016-07-06T04:08:13.273Z,99.99
2016-07-06T04:09:13.282Z,99.99
2016-07-06T04:10:13.215Z,99.99
2016-07-06T04:11:13.205Z,99.99
2016-07-06T04:12:13.204Z,99.99
2016-07-06T04:13:13.244Z,99.99
2016-07-06T04:14:13.216Z,99.99
2016-07-06T04:15:13.214Z,99.99
2016-07-06T04:16:13.286Z,99.99
2016-07-06T04:17:13.247Z,99.99
2016-07-06T04:18:13.250Z,99.99
2016-07-06T04:30:21.239Z,99.99
2016-07-06T04:31:21.237Z,99.99
2016-07-06T04:32:21.294Z,99.99
2016-07-06T04:33:21.293Z,99.99
2016-07-06T04:34:21.287Z,99.99
2016-07-06T04:35:21.214Z,99.99
2016-07-06T04:36:21.294Z,99.99
2016-07-06T04:37:21.309Z,99.99
2016-07-06T04:38:21.266Z,99.99
2016-07-06T04:39:21.266Z,99.99
2016-07-06T04:40:21.312Z,99.99
2016-07-06T04:41:21.232Z,99.99
2016-07-06T04:42:21.242Z,99.99
2016-07-06T04:43:21.263Z,99.99
2016-07-06T04:44:21.331Z,99.99
2016-07-06T04:45:21.275Z,99.99
2016-07-06T04:46:21.252Z,99.99
2016-07-06T04:47:21.251Z,99.99
2016-07-06T04:48:21.296Z,99.99
2016-07-06T04:49:21.321Z,99.99
2016-07-06T04:50:21.379Z,99.99
2016-07-06T04:51:21.331Z,99.99
2016-07-06T04:52:21.265Z,99.99
2016-07-06T04:53:21.262Z,99.99
2016-07-06T04:54:21.266Z,99.99
2016-07-06T04:55:21.330Z,99.99
2016-07-06T04:56:21.348Z,99.99
2016-07-06T04:57:21.353Z,99.99
2016-07-06T04:58:21.275Z,99.99
2016-07-06T04:59:21.286Z,99.99
2016-07-06T05:00:21.281Z,99.99
2016-07-06T05:01:21.322Z,99.99
2016-07-06T05:02:21.368Z,99.99
2016-07-06T05:03:21.356Z,99.99
2016-07-06T05:04:21.286Z,99.99
2016-07-06T05:05:21.370Z,99.99
2016-07-06T05:06:21.365Z,99.99
2016-07-06T05:07:21.370Z,99.99
2016-07-06T05:08:21.304Z,99.99
2016-07-06T05:09:21.381Z,99.99
2016-07-06T05:10:21.316Z,99.99
2016-07-06T05:11:21.384Z,99.99
2016-07-06T05:12:21.357Z,99.99
2016-07-06T05:13:21.390Z,99.99
2016-07-06T05:14:21.354Z,99.99
2016-07-06T05:15:21.330Z,99.99
2016-07-06T05:16:21.398Z,99.99
2016-07-06T05:17:21.353Z,99.99
2016-07-06T05:18:21.398Z,99.99
2016-07-06T05:19:21.336Z,99.99
2016-07-06T05:20:21.335Z,99.99
2016-07-06T05:21:21.408Z,99.99
2016-07-06T05:22:21.433Z,99.99
2016-07-06T05:23:21.437Z,99.99
2016-07-06T05:24:21.427Z,99.99
2016-07-06T05:25:21.397Z,99.99
2016-07-06T05:26:21.355Z,99.99
2016-07-06T05:27:21.396Z,99.99
2016-07-06T05:28:21.435Z,99.99
2016-07-06T05:29:21.619Z,99.99
2016-07-06T05:30:21.403Z,99.99
2016-07-06T05:31:21.449Z,99.99
2016-07-06T05:32:21.416Z,99.99
2016-07-06T05:33:21.445Z,99.99
2016-07-06T05:34:21.386Z,99.99
2016-07-06T05:35:21.460Z,99.99
2016-07-06T05:36:21.420Z,99.99
2016-07-06T05:37:21.429Z,99.99
2016-07-06T05:38:21.469Z,99.99
2016-07-06T05:39:21.449Z,99.99
2016-07-06T05:40:21.483Z,99.99
2016-07-06T05:41:21.480Z,99.99
2016-07-06T05:42:21.482Z,99.99
2016-07-06T05:43:21.475Z,99.99
2016-07-06T05:44:21.454Z,99.99
2016-07-06T05:45:21.491Z,99.99
2016-07-06T05:46:21.493Z,99.99
2016-07-06T05:47:21.487Z,99.99
2016-07-06T05:48:21.446Z,99.99
2016-07-06T05:49:21.492Z,99.99
2016-07-06T05:50:21.451Z,99.99
2016-07-06T05:51:21.475Z,99.99
2016-07-06T06:04:22.181Z,99.99
2016-07-06T06:04:29.303Z,99.99
2016-07-06T06:05:29.300Z,99.99
2016-07-06T06:06:29.234Z,99.99
2016-07-06T06:07:29.318Z,99.99
2016-07-06T06:08:29.283Z,99.99
2016-07-06T06:09:29.246Z,99.99
2016-07-06T06:10:29.350Z,99.99
2016-07-06T06:11:29.350Z,99.99
2016-07-06T06:12:29.307Z,99.99
2016-07-06T06:13:30.303Z,99.99
2016-07-06T06:14:29.293Z,99.99
2016-07-06T06:15:29.501Z,99.99
2016-07-06T06:16:29.330Z,99.99
2016-07-06T06:17:29.342Z,99.99
2016-07-06T06:18:29.341Z,99.99
2016-07-06T06:19:29.315Z,99.99
2016-07-06T06:20:29.367Z,99.99
2016-07-06T06:21:29.352Z,99.99
2016-07-06T06:22:29.351Z,99.99
2016-07-06T06:23:29.376Z,99.99
2016-07-06T06:24:29.325Z,99.99
2016-07-06T06:25:29.387Z,99.99
2016-07-06T06:26:29.327Z,99.99
2016-07-06T06:27:29.323Z,99.24
2016-07-06T06:28:29.358Z,98.95
2016-07-06T06:29:29.387Z,99.71
2016-07-06T06:30:30.046Z,99.99
2016-07-06T06:31:29.344Z,99.99
2016-07-06T06:32:29.311Z,99.71
2016-07-06T06:33:29.408Z,99.99
2016-07-06T06:34:29.311Z,98.66
2016-07-06T06:35:29.414Z,98.66
2016-07-06T06:36:29.367Z,99.43
2016-07-06T06:37:29.395Z,99.52
2016-07-06T06:38:29.407Z,99
2016-07-06T06:39:29.320Z,98.61
2016-07-06T06:40:29.422Z,97.47
2016-07-06T06:41:29.380Z,96.51
2016-07-06T06:42:29.418Z,97.08
2016-07-06T06:43:29.385Z,97.08
2016-07-06T06:44:29.419Z,96.89
2016-07-06T06:45:29.384Z,97.56
2016-07-06T06:46:29.498Z,97.47
2016-07-06T06:47:29.434Z,97.85
2016-07-06T06:48:29.442Z,97.75
2016-07-06T06:49:30.163Z,98.28
2016-07-06T06:50:29.650Z,98.47
2016-07-06T06:51:29.617Z,98.04
2016-07-06T06:52:29.620Z,98.61
2016-07-06T06:53:30.613Z,98.85
2016-07-06T06:54:29.618Z,99.43
2016-07-06T06:55:29.422Z,99.24
2016-07-06T06:56:29.373Z,99.04
2016-07-06T06:57:29.446Z,98.47
2016-07-06T06:58:29.416Z,98.24
2016-07-06T06:59:29.468Z,97.75
2016-07-06T07:00:29.394Z,97.85
2016-07-06T07:01:29.632Z,97.28
2016-07-06T07:02:29.463Z,96.18
2016-07-06T07:03:29.440Z,95.98
2016-07-06T07:04:34.919Z,96.47
2016-07-06T07:05:47.200Z,96.32
2016-07-06T07:06:29.508Z,96.51
2016-07-06T07:08:29.475Z,96.61
2016-07-06T07:09:29.491Z,95.46
2016-07-06T07:10:29.418Z,95.65
2016-07-06T07:11:29.433Z,94.98
2016-07-06T07:12:29.495Z,95.17
2016-07-06T07:13:29.509Z,95.46
2016-07-06T07:14:29.532Z,95.46
2016-07-06T07:15:29.478Z,95.36
2016-07-06T07:16:29.444Z,94.41
2016-07-06T07:17:29.555Z,94.6
2016-07-06T07:18:29.481Z,95.17
2016-07-06T07:19:29.519Z,94.98
2016-07-06T07:20:29.500Z,94.7
2016-07-06T07:21:29.516Z,94.12
2016-07-06T07:22:29.485Z,93.93
2016-07-06T07:23:29.493Z,94.21
2016-07-06T07:24:29.458Z,94.45
2016-07-06T07:25:29.508Z,94.36
2016-07-06T07:26:29.473Z,93.21
2016-07-06T07:27:29.472Z,92.44
2016-07-06T07:28:29.551Z,92.68
2016-07-06T07:29:29.545Z,91.15
2016-07-06T07:30:29.540Z,91.15
2016-07-06T07:31:29.814Z,91.15
2016-07-06T07:32:29.569Z,90.81
2016-07-06T07:33:29.584Z,90.53
2016-07-06T07:34:29.588Z,90.43
2016-07-06T07:35:29.502Z,91.15
2016-07-06T07:36:29.580Z,91.87
2016-07-06T07:37:30.592Z,91.3
2016-07-06T07:38:29.614Z,91.58
2016-07-06T07:39:30.318Z,92.02
2016-07-06T07:40:29.570Z,91.2
2016-07-06T07:41:29.603Z,90.82
2016-07-06T07:42:29.557Z,89.72
2016-07-06T07:43:29.587Z,88.7
2016-07-06T07:44:29.565Z,87.94
2016-07-06T07:45:29.553Z,88.51
2016-07-06T07:46:29.608Z,88.13
2016-07-06T07:47:29.570Z,88.61
2016-07-06T07:48:29.600Z,88.8
2016-07-06T07:49:29.616Z,88.95
2016-07-06T07:50:29.614Z,89.04
2016-07-06T07:51:29.716Z,89.72
2016-07-06T07:52:29.572Z,89.33
2016-07-06T07:53:29.625Z,88.95
2016-07-06T07:54:29.601Z,88.76
2016-07-06T07:55:29.592Z,88.61
2016-07-06T07:56:30.594Z,86.98
2016-07-06T07:57:29.562Z,85.49
2016-07-06T07:58:29.571Z,85.3
2016-07-06T07:59:29.563Z,84.53
2016-07-06T08:00:29.596Z,84.44
2016-07-06T08:01:29.567Z,85.05
2016-07-06T08:02:29.634Z,83.71
2016-07-06T08:03:29.666Z,83.71
2016-07-06T08:04:29.707Z,83.95
2016-07-06T08:05:29.710Z,85.11
2016-07-06T08:06:29.647Z,84.82
2016-07-06T08:07:29.642Z,83.33
2016-07-06T08:08:29.670Z,84.34
2016-07-06T08:09:29.689Z,85.3
2016-07-06T08:10:29.664Z,85.11
2016-07-06T08:11:29.609Z,84.05
2016-07-06T08:12:29.676Z,83.86
2016-07-06T08:13:29.674Z,83.76
2016-07-06T08:14:29.685Z,83.42
2016-07-06T08:15:29.719Z,82.65
2016-07-06T08:16:29.629Z,83.52
2016-07-06T08:17:29.729Z,82.46
2016-07-06T08:18:29.736Z,81.35
2016-07-06T08:19:29.662Z,80.58
2016-07-06T08:20:29.625Z,79.67
2016-07-06T08:21:29.726Z,80.15
2016-07-06T08:22:29.672Z,81.16
2016-07-06T08:23:29.705Z,81.54
2016-07-06T08:24:29.701Z,82.31
2016-07-06T08:25:29.709Z,84.72
2016-07-06T08:26:29.724Z,84.53
2016-07-06T08:27:29.757Z,85.49
2016-07-06T08:28:29.827Z,86.12
2016-07-06T08:29:29.854Z,86.74
2016-07-06T08:30:29.723Z,86.02
2016-07-06T08:31:29.725Z,86.88
2016-07-06T08:32:29.713Z,86.69
2016-07-06T08:33:29.697Z,85.83
2016-07-06T08:34:29.680Z,85.45
2016-07-06T08:35:29.680Z,85.45
2016-07-06T08:36:29.729Z,85.01
2016-07-06T08:37:29.761Z,84.34
2016-07-06T08:38:29.752Z,82.12
2016-07-06T08:39:29.766Z,80.43
2016-07-06T08:40:29.708Z,80.34
2016-07-06T08:41:29.680Z,79.52
2016-07-06T08:42:29.755Z,80.91
2016-07-06T08:43:29.693Z,79.38
2016-07-06T08:44:29.830Z,78.8
2016-07-06T08:45:29.696Z,78.61
2016-07-06T08:46:29.690Z,78.03
2016-07-06T08:47:29.775Z,78.42
2016-07-06T08:48:29.783Z,77.69
2016-07-06T08:50:04.640Z,79.32
2016-07-06T08:50:29.802Z,77
2016-07-06T08:51:29.705Z,74.6
2016-07-06T08:52:29.781Z,75.17
2016-07-06T08:53:29.742Z,76.42
2016-07-06T08:54:29.785Z,76.67
2016-07-06T08:55:29.773Z,76.64
2016-07-06T08:56:29.802Z,76.79
2016-07-06T08:57:29.764Z,76.06
2016-07-06T08:58:29.805Z,75.48
2016-07-06T08:59:29.807Z,74.55
2016-07-06T09:00:29.802Z,75.32
2016-07-06T09:01:29.771Z,75.13
2016-07-06T09:02:29.748Z,75.32
2016-07-06T09:03:29.747Z,76.48
2016-07-06T09:04:29.752Z,78.9
2016-07-06T09:05:29.870Z,79.57
2016-07-06T09:06:29.828Z,80.05
2016-07-06T09:07:29.837Z,78.52
2016-07-06T09:08:29.756Z,77.4
2016-07-06T09:09:29.853Z,76.92
2016-07-06T09:10:29.780Z,76.54
2016-07-06T09:11:29.846Z,76.06
2016-07-06T09:12:29.842Z,77.36
2016-07-06T09:13:29.783Z,76.73
2016-07-06T09:14:29.819Z,75.62
2016-07-06T09:15:29.861Z,77.21
2016-07-06T09:16:29.783Z,75.13
2016-07-06T09:17:29.789Z,75.13
2016-07-06T09:18:29.865Z,74.6
2016-07-06T09:19:30.390Z,74.98
2016-07-06T09:20:29.796Z,74.17
2016-07-06T09:21:29.824Z,73.44
2016-07-06T09:22:29.841Z,72.8
2016-07-06T09:23:29.803Z,74.34
2016-07-06T09:24:29.804Z,74.94
2016-07-06T09:25:29.936Z,72.92
2016-07-06T09:26:29.895Z,72.96
2016-07-06T09:27:29.838Z,74.17
2016-07-06T09:28:29.817Z,75.04
2016-07-06T09:29:29.941Z,74.27
2016-07-06T09:30:29.820Z,75.04
2016-07-06T09:31:29.875Z,74.02
2016-07-06T09:32:29.912Z,72.03
2016-07-06T09:33:29.870Z,71.11
2016-07-06T09:34:29.902Z,72.03
2016-07-06T09:35:29.883Z,71.84
2016-07-06T09:36:29.865Z,71.87
2016-07-06T09:37:29.883Z,71.87
2016-07-06T09:38:29.903Z,71.75
2016-07-06T09:39:29.923Z,72
2016-07-06T09:40:29.908Z,71.84
2016-07-06T09:41:29.903Z,70.78
2016-07-06T09:42:29.927Z,71.84
2016-07-06T09:43:29.937Z,71.26
2016-07-06T09:44:29.964Z,70.24
2016-07-06T09:45:30.008Z,70.05
2016-07-06T09:46:29.958Z,68.84
2016-07-06T09:47:29.874Z,68.71
2016-07-06T09:48:29.944Z,69.79
2016-07-06T09:49:29.982Z,71.34
2016-07-06T09:50:29.878Z,72.23
2016-07-06T09:51:30.204Z,74.46
2016-07-06T09:52:29.897Z,75.96
2016-07-06T09:53:29.892Z,76.06
2016-07-06T09:54:29.976Z,75.67
2016-07-06T09:55:29.965Z,77.11
2016-07-06T09:56:29.976Z,77.56
2016-07-06T09:57:29.935Z,77.65
2016-07-06T09:58:29.949Z,76.69
2016-07-06T09:59:29.984Z,75.77
2016-07-06T10:00:29.991Z,74.75
2016-07-06T10:01:29.947Z,74.43
2016-07-06T10:02:29.990Z,74.94
2016-07-06T10:03:30.033Z,73.75
2016-07-06T10:04:30.079Z,74.81
2016-07-06T10:05:29.978Z,74.52
2016-07-06T10:06:29.996Z,73.56
2016-07-06T10:07:29.953Z,73.66
2016-07-06T10:08:30.683Z,74.43
2016-07-06T10:09:30.037Z,74.43
2016-07-06T10:10:30.098Z,73.85
2016-07-06T10:11:29.950Z,74.23
2016-07-06T10:12:29.981Z,74.87
2016-07-06T10:13:30.095Z,74.87
2016-07-06T10:14:29.957Z,75.73
2016-07-06T10:15:30.068Z,75
2016-07-06T10:16:29.960Z,75.67
2016-07-06T10:17:30.058Z,76.21
2016-07-06T10:18:30.044Z,76.27
2016-07-06T10:19:30.040Z,77.04
2016-07-06T10:20:30.023Z,77.8
2016-07-06T10:21:30.043Z,78
2016-07-06T10:22:30.057Z,78.38
2016-07-06T10:23:30.065Z,78
2016-07-06T10:24:29.992Z,77.46
2016-07-06T10:25:30.069Z,76.4
2016-07-06T10:26:30.096Z,75.2
2016-07-06T10:27:30.032Z,74.27
2016-07-06T10:28:30.106Z,74.65
2016-07-06T10:29:30.026Z,75.29
2016-07-06T10:30:30.084Z,75.04
2016-07-06T10:31:30.082Z,74.75
2016-07-06T10:32:30.084Z,72.25
2016-07-06T10:33:30.101Z,71.58
2016-07-06T10:34:30.104Z,71.04
2016-07-06T10:35:30.129Z,70.27
2016-07-06T10:36:30.110Z,69.82
2016-07-06T10:37:30.027Z,68.86
2016-07-06T10:38:30.114Z,70.11
2016-07-06T10:39:30.049Z,69.44
2016-07-06T10:40:30.633Z,68.13
2016-07-06T10:41:30.045Z,67.49
2016-07-06T10:42:30.815Z,66.07
2016-07-06T10:43:30.100Z,66.17
2016-07-06T10:44:30.138Z,65.5
2016-07-06T10:45:30.129Z,64.08
2016-07-06T10:46:30.138Z,63.92
2016-07-06T10:47:30.048Z,65.62
2016-07-06T10:48:30.160Z,65.78
2016-07-06T10:49:30.126Z,67.58
2016-07-06T10:50:30.123Z,67.99
2016-07-06T10:51:31.048Z,68.86
2016-07-06T10:52:30.103Z,68.51
2016-07-06T10:53:30.152Z,68.09
2016-07-06T10:54:30.155Z,67.65
2016-07-06T10:55:30.177Z,68.06
2016-07-06T10:56:30.163Z,68.22
2016-07-06T10:57:30.126Z,68.41
2016-07-06T10:58:32.874Z,68.99
2016-07-06T10:59:30.131Z,69.44
2016-07-06T11:00:30.183Z,69.98
2016-07-06T11:01:30.178Z,70.07
2016-07-06T11:02:30.173Z,70.81
2016-07-06T11:03:30.139Z,70.23
2016-07-06T11:04:30.168Z,71.42
2016-07-06T11:05:30.150Z,67.42
2016-07-06T11:06:30.179Z,66.1
2016-07-06T11:07:30.182Z,66.84
2016-07-06T11:08:30.207Z,66.88
2016-07-06T11:09:30.189Z,67.03
2016-07-06T11:10:30.202Z,67.45
2016-07-06T11:11:30.194Z,67.16
2016-07-06T11:12:30.228Z,66.62
2016-07-06T11:13:30.202Z,66.3
2016-07-06T11:14:30.270Z,67.74
2016-07-06T11:15:30.321Z,68.32
2016-07-06T11:16:30.165Z,69.06
2016-07-06T11:17:30.233Z,70.04
2016-07-06T11:18:30.178Z,70.72
2016-07-06T11:19:30.251Z,70.9
2016-07-06T11:20:30.216Z,69.4
2016-07-06T11:21:30.191Z,68.63
2016-07-06T11:22:30.156Z,67.9
2016-07-06T11:23:30.202Z,68.96
2016-07-06T11:24:30.277Z,69.6
2016-07-06T11:25:31.192Z,67.48
2016-07-06T11:26:30.243Z,68.19
2016-07-06T11:27:30.245Z,68.86
2016-07-06T11:28:30.332Z,66.3
2016-07-06T11:29:30.860Z,66.58
2016-07-06T11:30:30.240Z,65.5
2016-07-06T11:31:30.284Z,65.69
2016-07-06T11:32:30.466Z,65.3
2016-07-06T11:33:30.536Z,65.14
2016-07-06T11:34:30.467Z,64.5
2016-07-06T11:35:30.558Z,63.44
2016-07-06T11:36:31.874Z,63.12
2016-07-06T11:37:30.193Z,62.09
2016-07-06T11:38:30.749Z,61.41
2016-07-06T11:39:30.213Z,61.68
2016-07-06T11:40:30.242Z,62.25
2016-07-06T11:41:30.287Z,63.18
2016-07-06T11:42:30.234Z,63.82
2016-07-06T11:43:30.258Z,63.09
2016-07-06T11:44:30.251Z,63.12
2016-07-06T11:45:30.293Z,63.5
2016-07-06T11:46:30.300Z,63.02
2016-07-06T11:47:30.224Z,63.5
2016-07-06T11:48:30.272Z,63.34
2016-07-06T11:49:30.258Z,64.89
2016-07-06T11:50:30.320Z,65.56
2016-07-06T11:51:30.241Z,66.62
2016-07-06T11:52:30.308Z,66.91
2016-07-06T11:53:30.243Z,66.33
2016-07-06T11:54:30.322Z,63.09
2016-07-06T11:55:30.311Z,62.35
2016-07-06T11:56:30.329Z,61.48
2016-07-06T11:57:30.291Z,60.55
2016-07-06T11:58:30.354Z,59.83
2016-07-06T11:59:30.274Z,59.83
2016-07-06T12:00:30.322Z,59.25
2016-07-06T12:01:30.276Z,58.9
2016-07-06T12:02:30.384Z,58.93
2016-07-06T12:03:30.461Z,59.12
2016-07-06T12:04:30.515Z,58.47
2016-07-06T12:05:30.376Z,57.7
2016-07-06T12:06:30.275Z,58.57
2016-07-06T12:07:30.321Z,58.73
2016-07-06T12:08:30.277Z,59.09
2016-07-06T12:09:30.459Z,59.16
2016-07-06T12:10:30.318Z,59.9
2016-07-06T12:11:30.365Z,59.97
2016-07-06T12:12:30.374Z,61.48
2016-07-06T12:13:30.498Z,59.2
2016-07-06T12:14:30.345Z,61.29
2016-07-06T12:15:30.295Z,61.93
2016-07-06T12:16:30.380Z,61.45
2016-07-06T12:17:30.426Z,60.42
2016-07-06T12:18:30.415Z,60.1
2016-07-06T12:19:30.462Z,60.97
2016-07-06T12:20:30.394Z,61.8
2016-07-06T12:21:30.354Z,62.51
2016-07-06T12:22:30.363Z,62.22
2016-07-06T12:23:30.398Z,62
2016-07-06T12:24:30.354Z,63.06
2016-07-06T12:25:30.415Z,62.38
2016-07-06T12:26:30.410Z,63.67
2016-07-06T12:27:30.360Z,63.67
2016-07-06T12:28:30.426Z,64.25
2016-07-06T12:29:30.443Z,63.73
2016-07-06T12:30:30.477Z,64.98
2016-07-06T12:31:30.425Z,64.69
2016-07-06T12:32:30.401Z,64.25
2016-07-06T12:33:30.435Z,63.12
2016-07-06T12:34:30.477Z,61.41
2016-07-06T12:35:30.371Z,58.97
2016-07-06T12:36:30.408Z,59.25
2016-07-06T12:37:30.442Z,59.13
2016-07-06T12:38:30.416Z,58.84
2016-07-06T12:39:30.401Z,58.65
2016-07-06T12:40:30.437Z,59.13
2016-07-06T12:41:30.392Z,59.52
2016-07-06T12:42:30.385Z,58.68
2016-07-06T12:43:30.384Z,59.78
2016-07-06T12:44:30.479Z,58.36
2016-07-06T12:45:30.486Z,59.16
2016-07-06T12:46:30.472Z,61.19
2016-07-06T12:47:30.431Z,62.22
2016-07-06T12:48:30.396Z,62.51
2016-07-06T12:49:30.476Z,62.12
2016-07-06T12:50:30.435Z,60.74
2016-07-06T12:51:30.408Z,59.32
2016-07-06T12:52:30.450Z,59.23
2016-07-06T12:53:30.412Z,59.42
2016-07-06T12:54:30.456Z,61.61
2016-07-06T12:55:30.500Z,63.09
2016-07-06T12:56:30.419Z,62.25
2016-07-06T12:57:30.490Z,62.15
2016-07-06T12:58:30.498Z,62.45
2016-07-06T12:59:30.473Z,61.58
2016-07-06T13:00:30.480Z,60.1
2016-07-06T13:01:30.543Z,59.01
2016-07-06T13:02:30.466Z,58.92
2016-07-06T13:03:30.704Z,59.75
2016-07-06T13:04:30.708Z,60.62
2016-07-06T13:05:30.557Z,61.97
2016-07-06T13:06:30.490Z,63.02
2016-07-06T13:07:30.500Z,63.51
2016-07-06T13:08:30.454Z,64.56
2016-07-06T13:09:30.487Z,63.25
2016-07-06T13:10:30.490Z,61.8
2016-07-06T13:11:30.537Z,61.25
2016-07-06T13:12:30.481Z,61.07
2016-07-06T13:13:30.519Z,60.61
2016-07-06T13:14:30.551Z,59.65
2016-07-06T13:15:30.557Z,59.58
2016-07-06T13:16:30.549Z,58.84
2016-07-06T13:17:30.613Z,58.65